Time;durP1;ratioP1;P1;durP2;ratioP2;P2;SDS_P1;SDS_P2;PMS_P1;PMS_P2;Temp;Humidity;BMP_temperature;BMP_pressure;BME280_temperature;BME280_humidity;BME280_pressure;Samples;Min_cycle;Max_cycle;Signal;HPM_P1;HPM_P2
2021/12/14 00:01:36;;;;;;;;;;;;;;;-142.21;100.00;66915.31;5017027;28;1297;-87
2021/12/14 00:04:17;;;;;;;;;;;;;;;-142.21;100.00;66915.31;5017031;28;1519;-88
2021/12/14 00:06:42;;;;;;;;;;;;;;;-142.21;100.00;66915.31;5017120;28;1216;-87
2021/12/14 00:09:09;;;;;;;;;;;;;;;-142.21;100.00;66915.31;5034691;28;1028;-87
2021/12/14 00:16:40;;;;;;;;;;;;;;;-142.21;100.00;66915.31;5034606;28;833;-87
2021/12/14 00:19:06;;;;;;;;;;;;;;;-142.21;100.00;66915.31;5016793;28;1870;-88
2021/12/14 00:21:31;;;;;;;;;;;;;;;-142.21;100.00;66915.31;5035618;28;1189;-87
2021/12/14 00:24:10;;;;;;;;;;;;;;;-142.21;100.00;66915.31;5020796;28;1403;-87
2021/12/14 00:26:44;;;;;;;;;;;;;;;-142.21;100.00;66915.31;5021174;28;1245;-87
2021/12/14 00:29:13;;;;;;;;;;;;;;;-142.21;100.00;66915.31;5021276;28;1209;-87
2021/12/14 00:31:38;;;;;;;;;;;;;;;-142.21;100.00;66915.31;5021250;28;1385;-87
2021/12/14 00:34:06;;;;;;;;;;;;;;;-142.21;100.00;66915.31;5020524;28;1334;-87
2021/12/14 00:36:32;;;;;;;;;;;;;;;-142.21;100.00;66915.31;5020995;28;1409;-87
2021/12/14 00:38:57;;;;;;;;;;;;;;;-142.21;100.00;66915.31;5020383;28;1902;-87
2021/12/14 00:41:25;;;;;;;;;;;;;;;-142.21;100.00;66915.31;5020839;28;1214;-87
2021/12/14 00:43:50;;;;;;;;;;;;;;;-142.21;100.00;66915.31;5020922;28;1492;-88
2021/12/14 00:46:17;;;;;;;;;;;;;;;-142.21;100.00;66915.31;5021156;28;1489;-88
2021/12/14 00:48:43;;;;;;;;;;;;;;;-142.21;100.00;66915.31;5021310;28;1333;-87
2021/12/14 00:51:08;;;;;;;;;;;;;;;-142.21;100.00;66915.31;5021546;28;1264;-87
2021/12/14 00:53:34;;;;;;;;;;;;;;;-142.21;100.00;66915.31;5022290;28;1185;-87
2021/12/14 00:56:02;;;;;;;;;;;;;;;-142.21;100.00;66915.31;5023038;28;1303;-88
2021/12/14 00:58:28;;;;;;;;;;;;;;;-142.21;100.00;66915.31;5023847;28;1878;-87
2021/12/14 01:00:56;;;;;;;;;;;;;;;-142.21;100.00;66915.31;5040256;28;1565;-87
2021/12/14 01:03:22;;;;;;;;;;;;;;;-142.21;100.00;66915.31;5038383;28;959;-87
2021/12/14 01:05:48;;;;;;;;;;;;;;;-142.21;100.00;66915.31;5021036;28;1295;-87
2021/12/14 01:08:17;;;;;;;;;;;;;;;-142.21;100.00;66915.31;5020651;28;1164;-87
2021/12/14 01:11:06;;;;;;;;;;;;;;;-142.21;100.00;66915.31;5020850;28;1187;-87
2021/12/14 01:13:35;;;;;;;;;;;;;;;-142.21;100.00;66915.31;5014520;28;1324;-88
2021/12/14 01:16:17;;;;;;;;;;;;;;;-142.21;100.00;66915.31;5021988;28;1184;-87
2021/12/14 01:21:21;;;;;;;;;;;;;;;-142.21;100.00;66915.31;5037645;28;1515;-87
2021/12/14 01:23:47;;;;;;;;;;;;;;;-142.21;100.00;66915.31;5019613;28;1310;-87
2021/12/14 01:26:15;;;;;;;;;;;;;;;-142.21;100.00;66915.31;5019602;28;1263;-87
2021/12/14 01:28:42;;;;;;;;;;;;;;;-142.21;100.00;66915.31;5019238;28;1264;-87
2021/12/14 01:31:16;;;;;;;;;;;;;;;-142.21;100.00;66915.31;5019273;28;1348;-87
2021/12/14 01:33:44;;;;;;;;;;;;;;;-142.21;100.00;66915.31;5018108;28;1285;-89
2021/12/14 01:36:24;;;;;;;;;;;;;;;-142.21;100.00;66915.31;5019181;28;1353;-87
2021/12/14 01:39:10;;;;;;;;;;;;;;;-142.21;100.00;66915.31;5037177;28;1953;-87
2021/12/14 01:41:35;;;;;;;;;;;;;;;-142.21;100.00;66915.31;5019283;28;1245;-87
2021/12/14 01:44:01;;;;;;;;;;;;;;;-142.21;100.00;66915.31;5019289;28;1323;-87
2021/12/14 01:46:34;;;;;;;;;;;;;;;-142.21;100.00;66915.31;5036919;28;1515;-88
2021/12/14 01:49:05;;;;;;;;;;;;;;;-142.21;100.00;66915.31;5018918;28;1226;-87
2021/12/14 01:51:30;;;;;;;;;;;;;;;-142.21;100.00;66915.31;5018830;28;1406;-89
2021/12/14 01:53:55;;;;;;;;;;;;;;;-142.21;100.00;66915.31;5018945;28;1395;-87
2021/12/14 01:56:22;;;;;;;;;;;;;;;-142.21;100.00;66915.31;5018919;28;1189;-88
2021/12/14 01:58:51;;;;;;;;;;;;;;;-142.21;100.00;66915.31;5018495;28;1959;-87
2021/12/14 02:01:35;;;;;;;;;;;;;;;-142.21;100.00;66915.31;5018721;28;1259;-87
2021/12/14 02:04:06;;;;;;;;;;;;;;;-142.21;100.00;66915.31;5018762;28;1202;-87
2021/12/14 02:06:32;;;;;;;;;;;;;;;-142.21;100.00;66915.31;5018750;28;1355;-87
2021/12/14 02:09:00;;;;;;;;;;;;;;;-142.21;100.00;66915.31;5018148;28;1515;-88
2021/12/14 02:11:29;;;;;;;;;;;;;;;-142.21;100.00;66915.31;5018277;28;1496;-87
2021/12/14 02:13:55;;;;;;;;;;;;;;;-142.21;100.00;66915.31;5018408;28;1184;-89
2021/12/14 02:16:21;;;;;;;;;;;;;;;-142.21;100.00;66915.31;5018755;28;1233;-87
2021/12/14 02:18:49;;;;;;;;;;;;;;;-142.21;100.00;66915.31;5018040;28;1955;-87
2021/12/14 02:21:14;;;;;;;;;;;;;;;-142.21;100.00;66915.31;5018429;28;1367;-87
2021/12/14 02:23:41;;;;;;;;;;;;;;;-142.21;100.00;66915.31;5018749;28;1249;-87
2021/12/14 02:26:10;;;;;;;;;;;;;;;-142.21;100.00;66915.31;5017995;28;1318;-89
2021/12/14 02:28:36;;;;;;;;;;;;;;;-142.21;100.00;66915.31;5036069;28;1082;-87
2021/12/14 02:31:03;;;;;;;;;;;;;;;-142.21;100.00;66915.31;5018023;28;1257;-87
2021/12/14 02:33:31;;;;;;;;;;;;;;;-142.21;100.00;66915.31;5018632;28;1311;-87
2021/12/14 02:35:57;;;;;;;;;;;;;;;-142.21;100.00;66915.31;5018332;28;1319;-87
2021/12/14 02:38:23;;;;;;;;;;;;;;;-142.21;100.00;66915.31;5018400;28;1959;-87
2021/12/14 02:40:54;;;;;;;;;;;;;;;-142.21;100.00;66915.31;5037116;28;1198;-87
2021/12/14 02:43:49;;;;;;;;;;;;;;;-142.21;100.00;66915.31;5019090;28;1283;-88
2021/12/14 02:46:32;;;;;;;;;;;;;;;-142.21;100.00;66915.31;5019502;28;1569;-87
2021/12/14 02:48:59;;;;;;;;;;;;;;;-142.21;100.00;66915.31;5018542;28;1544;-87
2021/12/14 02:51:29;;;;;;;;;;;;;;;-142.21;100.00;66915.31;5018867;28;1303;-87
2021/12/14 02:53:56;;;;;;;;;;;;;;;-142.21;100.00;66915.31;5018558;28;1534;-87
2021/12/14 02:56:24;;;;;;;;;;;;;;;-142.21;100.00;66915.31;5018381;28;1184;-89
2021/12/14 02:58:54;;;;;;;;;;;;;;;-142.21;100.00;66915.31;5018237;28;1894;-88
2021/12/14 03:01:19;;;;;;;;;;;;;;;-142.21;100.00;66915.31;5018583;28;1187;-87
2021/12/14 03:03:45;;;;;;;;;;;;;;;-142.21;100.00;66915.31;5018579;28;1402;-87
2021/12/14 03:06:11;;;;;;;;;;;;;;;-142.21;100.00;66915.31;5020013;28;1342;-87
2021/12/14 03:08:44;;;;;;;;;;;;;;;-142.21;100.00;66915.31;5020051;28;1520;-87
2021/12/14 03:11:10;;;;;;;;;;;;;;;-142.21;100.00;66915.31;5021754;28;1488;-89
2021/12/14 03:13:40;;;;;;;;;;;;;;;-142.21;100.00;66915.31;5018091;28;1508;-87
2021/12/14 03:16:10;;;;;;;;;;;;;;;-142.21;100.00;66915.31;5017997;28;1504;-88
2021/12/14 03:18:38;;;;;;;;;;;;;;;-142.21;100.00;66915.31;5018367;28;1894;-88
2021/12/14 03:21:08;;;;;;;;;;;;;;;-142.21;100.00;66915.31;5017942;28;1224;-87
2021/12/14 03:23:37;;;;;;;;;;;;;;;-142.21;100.00;66915.31;5018434;28;1275;-87
2021/12/14 03:26:03;;;;;;;;;;;;;;;-142.21;100.00;66915.31;5018249;28;1224;-88
2021/12/14 03:28:29;;;;;;;;;;;;;;;-142.21;100.00;66915.31;5017998;28;1209;-87
2021/12/14 03:31:04;;;;;;;;;;;;;;;-142.21;100.00;66915.31;5017684;28;1476;-87
2021/12/14 03:33:33;;;;;;;;;;;;;;;-142.21;100.00;66915.31;5017410;28;1282;-87
2021/12/14 03:36:05;;;;;;;;;;;;;;;-142.21;100.00;66915.31;5018033;28;1209;-88
2021/12/14 03:38:33;;;;;;;;;;;;;;;-142.21;100.00;66915.31;5017147;28;1890;-87
2021/12/14 03:41:10;;;;;;;;;;;;;;;-142.21;100.00;66915.31;5017414;28;1519;-87
2021/12/14 03:43:36;;;;;;;;;;;;;;;-142.21;100.00;66915.31;5017608;28;1204;-87
2021/12/14 03:46:01;;;;;;;;;;;;;;;-142.21;100.00;66915.31;5017233;28;1295;-88
2021/12/14 03:48:28;;;;;;;;;;;;;;;-142.21;100.00;66915.31;5017056;28;1184;-89
2021/12/14 03:50:54;;;;;;;;;;;;;;;-142.21;100.00;66915.31;5016778;28;1299;-87
2021/12/14 03:53:50;;;;;;;;;;;;;;;-142.21;100.00;66915.31;5016258;28;1165;-87
2021/12/14 03:56:16;;;;;;;;;;;;;;;-142.21;100.00;66915.31;5009300;28;1286;-87
2021/12/14 03:58:42;;;;;;;;;;;;;;;-142.21;100.00;66915.31;5016492;28;1949;-87
2021/12/14 04:01:12;;;;;;;;;;;;;;;-142.21;100.00;66915.31;4997894;28;1531;-88
2021/12/14 04:03:39;;;;;;;;;;;;;;;-142.21;100.00;66915.31;4997282;28;1189;-87
2021/12/14 04:06:04;;;;;;;;;;;;;;;-142.21;100.00;66915.31;4997380;28;1212;-87
2021/12/14 04:08:30;;;;;;;;;;;;;;;-142.21;100.00;66915.31;4997080;28;1197;-87
2021/12/14 04:10:56;;;;;;;;;;;;;;;-142.21;100.00;66915.31;4996949;28;1324;-87
2021/12/14 04:13:23;;;;;;;;;;;;;;;-142.21;100.00;66915.31;4997091;28;1213;-87
2021/12/14 04:15:48;;;;;;;;;;;;;;;-142.21;100.00;66915.31;4997253;28;1258;-87
2021/12/14 04:18:14;;;;;;;;;;;;;;;-142.21;100.00;66915.31;4996966;28;1890;-88
2021/12/14 04:20:41;;;;;;;;;;;;;;;-142.21;100.00;66915.31;4997640;28;1189;-87
2021/12/14 04:23:10;;;;;;;;;;;;;;;-142.21;100.00;66915.31;4997322;28;1317;-87
2021/12/14 04:25:36;;;;;;;;;;;;;;;-142.21;100.00;66915.31;4996977;28;1210;-87
2021/12/14 04:28:05;;;;;;;;;;;;;;;-142.21;100.00;66915.31;4996907;28;1181;-88
2021/12/14 04:30:31;;;;;;;;;;;;;;;-142.21;100.00;66915.31;4997340;28;1338;-87
2021/12/14 04:32:58;;;;;;;;;;;;;;;-142.21;100.00;66915.31;4996734;28;1181;-88
2021/12/14 04:35:25;;;;;;;;;;;;;;;-142.21;100.00;66915.31;4996903;28;1350;-88
2021/12/14 04:37:53;;;;;;;;;;;;;;;-142.21;100.00;66915.31;5008032;28;1959;-87
2021/12/14 04:54:38;;;;;;;;;;;;;;;-142.21;100.00;66915.31;4935658;29;1374;-88
2021/12/14 04:57:04;;;;;;;;;;;;;;;-142.21;100.00;66915.31;4981084;28;1903;-87
2021/12/14 04:59:32;;;;;;;;;;;;;;;-142.21;100.00;66915.31;4997277;28;1232;-87
2021/12/14 05:02:00;;;;;;;;;;;;;;;-142.21;100.00;66915.31;5017238;28;1337;-87
2021/12/14 05:04:26;;;;;;;;;;;;;;;-142.21;100.00;66915.31;4999165;28;1181;-88
2021/12/14 05:06:56;;;;;;;;;;;;;;;-142.21;100.00;66915.31;5003824;28;1630;-87
2021/12/14 05:09:29;;;;;;;;;;;;;;;-142.21;100.00;66915.31;5020498;28;1316;-87
2021/12/14 05:11:54;;;;;;;;;;;;;;;-142.21;100.00;66915.31;5037898;28;1177;-87
2021/12/14 05:14:20;;;;;;;;;;;;;;;-142.21;100.00;66915.31;5037973;28;1082;-88
2021/12/14 05:16:45;;;;;;;;;;;;;;;-142.21;100.00;66915.31;5019779;28;1245;-88
2021/12/14 05:19:11;;;;;;;;;;;;;;;-142.21;100.00;66915.31;5019597;28;1894;-88
2021/12/14 05:21:39;;;;;;;;;;;;;;;-142.21;100.00;66915.31;5020822;28;1236;-87
2021/12/14 05:24:06;;;;;;;;;;;;;;;-142.21;100.00;66915.31;5040122;28;1607;-87
2021/12/14 05:26:31;;;;;;;;;;;;;;;-142.21;100.00;66915.31;5022592;28;1460;-87
2021/12/14 05:28:57;;;;;;;;;;;;;;;-142.21;100.00;66915.31;5038872;28;866;-86
2021/12/14 05:33:52;;;;;;;;;;;;;;;-142.21;100.00;66915.31;5034683;28;2045;-89
2021/12/14 05:36:19;;;;;;;;;;;;;;;-142.21;100.00;66915.31;5019890;28;1271;-88
2021/12/14 05:38:58;;;;;;;;;;;;;;;-142.21;100.00;66915.31;5022283;28;1918;-89
2021/12/14 05:44:10;;;;;;;;;;;;;;;-142.21;100.00;66915.31;5041192;28;1517;-89
2021/12/14 05:46:36;;;;;;;;;;;;;;;-142.21;100.00;66915.31;5034424;28;1508;-89
2021/12/14 05:49:04;;;;;;;;;;;;;;;-142.21;100.00;66915.31;5034040;28;1401;-89
2021/12/14 05:51:30;;;;;;;;;;;;;;;-142.21;100.00;66915.31;5036873;28;1289;-89
2021/12/14 05:53:56;;;;;;;;;;;;;;;-142.21;100.00;66915.31;5019754;28;1415;-89
2021/12/14 05:56:22;;;;;;;;;;;;;;;-142.21;100.00;66915.31;5036263;28;1544;-87
2021/12/14 05:58:49;;;;;;;;;;;;;;;-142.21;100.00;66915.31;5020012;28;1894;-89
2021/12/14 06:01:18;;;;;;;;;;;;;;;-142.21;100.00;66915.31;5019605;28;1585;-91
2021/12/14 06:03:46;;;;;;;;;;;;;;;-142.21;100.00;66915.31;5036936;28;794;-91
2021/12/14 06:06:13;;;;;;;;;;;;;;;-142.21;100.00;66915.31;5037602;28;785;-89
2021/12/14 06:08:39;;;;;;;;;;;;;;;-142.21;100.00;66915.31;5036276;28;1525;-89
2021/12/14 06:11:04;;;;;;;;;;;;;;;-142.21;100.00;66915.31;5037569;28;1310;-89
2021/12/14 06:13:41;;;;;;;;;;;;;;;-142.21;100.00;66915.31;5019594;28;1192;-89
2021/12/14 06:16:08;;;;;;;;;;;;;;;-142.21;100.00;66915.31;5019491;28;1462;-91
2021/12/14 06:18:33;;;;;;;;;;;;;;;-142.21;100.00;66915.31;5037768;28;1930;-91
2021/12/14 06:20:58;;;;;;;;;;;;;;;-142.21;100.00;66915.31;5037044;28;1291;-88
2021/12/14 06:23:25;;;;;;;;;;;;;;;-142.21;100.00;66915.31;5037206;28;786;-92
2021/12/14 06:25:51;;;;;;;;;;;;;;;-142.21;100.00;66915.31;5019274;28;1138;-89
2021/12/14 06:28:27;;;;;;;;;;;;;;;-142.21;100.00;66915.31;5019183;28;1237;-88
2021/12/14 06:30:54;;;;;;;;;;;;;;;-142.21;100.00;66915.31;5035695;28;1207;-88
2021/12/14 06:33:19;;;;;;;;;;;;;;;-142.21;100.00;66915.31;5035978;28;1177;-88
2021/12/14 06:35:47;;;;;;;;;;;;;;;-142.21;100.00;66915.31;5018519;28;1244;-90
2021/12/14 06:38:26;;;;;;;;;;;;;;;-142.21;100.00;66915.31;5036639;28;1905;-90
2021/12/14 06:40:51;;;;;;;;;;;;;;;-142.21;100.00;66915.31;5018520;28;1276;-88
2021/12/14 06:43:21;;;;;;;;;;;;;;;-142.21;100.00;66915.31;5036462;28;781;-89
2021/12/14 06:45:48;;;;;;;;;;;;;;;-142.21;100.00;66915.31;5018355;28;1300;-89
2021/12/14 06:48:20;;;;;;;;;;;;;;;-142.21;100.00;66915.31;5036616;28;1046;-88
2021/12/14 06:50:57;;;;;;;;;;;;;;;-142.21;100.00;66915.31;5018724;28;1499;-90
2021/12/14 06:53:22;;;;;;;;;;;;;;;-142.21;100.00;66915.31;5019237;28;1273;-91
2021/12/14 06:55:52;;;;;;;;;;;;;;;-142.21;100.00;66915.31;5018231;28;1245;-90
2021/12/14 06:58:20;;;;;;;;;;;;;;;-142.21;100.00;66915.31;5036382;28;1953;-92
2021/12/14 07:00:57;;;;;;;;;;;;;;;-142.21;100.00;66915.31;5018455;28;1335;-88
2021/12/14 07:03:22;;;;;;;;;;;;;;;-142.21;100.00;66915.31;5036650;28;1046;-90
2021/12/14 07:05:49;;;;;;;;;;;;;;;-142.21;100.00;66915.31;5018357;28;1196;-89
2021/12/14 07:08:17;;;;;;;;;;;;;;;-142.21;100.00;66915.31;5036289;28;782;-89
2021/12/14 07:10:43;;;;;;;;;;;;;;;-142.21;100.00;66915.31;5018723;28;1312;-90
2021/12/14 07:13:09;;;;;;;;;;;;;;;-142.21;100.00;66915.31;5035566;28;1240;-89
2021/12/14 07:15:36;;;;;;;;;;;;;;;-142.21;100.00;66915.31;5036279;28;972;-89
2021/12/14 07:18:04;;;;;;;;;;;;;;;-142.21;100.00;66915.31;5018860;28;1929;-87
2021/12/14 07:20:38;;;;;;;;;;;;;;;-142.21;100.00;66915.31;5035189;28;865;-92
2021/12/14 07:23:04;;;;;;;;;;;;;;;-142.21;100.00;66915.31;5017382;28;1398;-90
2021/12/14 07:25:34;;;;;;;;;;;;;;;-142.21;100.00;66915.31;5017752;28;1375;-89
2021/12/14 07:28:00;;;;;;;;;;;;;;;-142.21;100.00;66915.31;5018331;28;1335;-91
2021/12/14 07:30:29;;;;;;;;;;;;;;;-142.21;100.00;66915.31;5017534;28;1209;-92
2021/12/14 07:33:00;;;;;;;;;;;;;;;-142.21;100.00;66915.31;5017165;28;1307;-91
2021/12/14 07:35:29;;;;;;;;;;;;;;;-142.21;100.00;66915.31;5017090;28;1267;-91
2021/12/14 07:37:56;;;;;;;;;;;;;;;-142.21;100.00;66915.31;5017144;28;1969;-90
2021/12/14 07:40:23;;;;;;;;;;;;;;;-142.21;100.00;66915.31;5016700;28;1472;-91
2021/12/14 07:42:48;;;;;;;;;;;;;;;-142.21;100.00;66915.31;5034480;28;1528;-91
2021/12/14 07:45:22;;;;;;;;;;;;;;;-142.21;100.00;66915.31;5034568;28;967;-90
2021/12/14 07:47:52;;;;;;;;;;;;;;;-142.21;100.00;66915.31;5034653;28;782;-91
2021/12/14 07:50:17;;;;;;;;;;;;;;;-142.21;100.00;66915.31;5034101;28;802;-91
2021/12/14 07:52:42;;;;;;;;;;;;;;;-142.21;100.00;66915.31;5017955;28;1295;-89
2021/12/14 07:55:13;;;;;;;;;;;;;;;-142.21;100.00;66915.31;5019149;28;1162;-90
2021/12/14 07:57:38;;;;;;;;;;;;;;;-142.21;100.00;66915.31;5017178;28;1897;-89
2021/12/14 08:00:11;;;;;;;;;;;;;;;-142.21;100.00;66915.31;5035773;28;1039;-90
2021/12/14 08:02:40;;;;;;;;;;;;;;;-142.21;100.00;66915.31;5017392;28;1278;-91
2021/12/14 08:05:18;;;;;;;;;;;;;;;-142.21;100.00;66915.31;5035094;28;1176;-90
2021/12/14 08:07:48;;;;;;;;;;;;;;;-142.21;100.00;66915.31;5035282;28;1058;-88
2021/12/14 08:10:21;;;;;;;;;;;;;;;-142.21;100.00;66915.31;5033827;28;1254;-91
2021/12/14 08:12:49;;;;;;;;;;;;;;;-142.21;100.00;66915.31;5016394;28;1717;-92
2021/12/14 08:15:20;;;;;;;;;;;;;;;-142.21;100.00;66915.31;5017028;28;1369;-93
2021/12/14 08:17:47;;;;;;;;;;;;;;;-142.21;100.00;66915.31;5016410;28;1902;-90
2021/12/14 08:20:19;;;;;;;;;;;;;;;-142.21;100.00;66915.31;5015858;28;1372;-92
2021/12/14 08:22:45;;;;;;;;;;;;;;;-142.21;100.00;66915.31;5034414;28;1243;-91
2021/12/14 08:25:13;;;;;;;;;;;;;;;-142.21;100.00;66915.31;5035241;28;988;-89
2021/12/14 08:27:38;;;;;;;;;;;;;;;-142.21;100.00;66915.31;5034195;28;1024;-92
2021/12/14 08:30:09;;;;;;;;;;;;;;;-142.21;100.00;66915.31;5015303;28;1701;-90
2021/12/14 08:32:36;;;;;;;;;;;;;;;-142.21;100.00;66915.31;5016009;28;1213;-91
2021/12/14 08:35:04;;;;;;;;;;;;;;;-142.21;100.00;66915.31;5016155;28;1251;-91
2021/12/14 08:37:35;;;;;;;;;;;;;;;-142.21;100.00;66915.31;5016335;28;1968;-92
2021/12/14 08:40:05;;;;;;;;;;;;;;;-142.21;100.00;66915.31;5032500;28;1295;-92
2021/12/14 08:42:42;;;;;;;;;;;;;;;-142.21;100.00;66915.31;5034640;28;1215;-92
2021/12/14 08:45:25;;;;;;;;;;;;;;;-142.21;100.00;66915.31;5037328;28;1658;-92
2021/12/14 08:47:52;;;;;;;;;;;;;;;-142.21;100.00;66915.31;5037231;28;885;-91
2021/12/14 08:50:18;;;;;;;;;;;;;;;-142.21;100.00;66915.31;5036038;28;1238;-93
2021/12/14 08:52:43;;;;;;;;;;;;;;;-142.21;100.00;66915.31;5037803;28;1199;-92
2021/12/14 08:55:10;;;;;;;;;;;;;;;-142.21;100.00;66915.31;5020059;28;1169;-92
2021/12/14 08:57:35;;;;;;;;;;;;;;;-142.21;100.00;66915.31;5038214;28;1901;-92
2021/12/14 09:00:12;;;;;;;;;;;;;;;-142.21;100.00;66915.31;5021179;28;1215;-91
2021/12/14 09:02:38;;;;;;;;;;;;;;;-142.21;100.00;66915.31;5037613;28;1500;-90
2021/12/14 09:05:12;;;;;;;;;;;;;;;-142.21;100.00;66915.31;5020387;28;1211;-90
2021/12/14 09:07:37;;;;;;;;;;;;;;;-142.21;100.00;66915.31;5037204;28;1345;-90
2021/12/14 09:10:06;;;;;;;;;;;;;;;-142.21;100.00;66915.31;5036987;28;1227;-91
2021/12/14 09:12:33;;;;;;;;;;;;;;;-142.21;100.00;66915.31;5037404;28;1650;-91
2021/12/14 09:15:07;;;;;;;;;;;;;;;-142.21;100.00;66915.31;5019431;28;1206;-92
2021/12/14 09:17:32;;;;;;;;;;;;;;;-142.21;100.00;66915.31;5037232;28;1905;-91
2021/12/14 09:19:59;;;;;;;;;;;;;;;-142.21;100.00;66915.31;5019587;28;1604;-91
2021/12/14 09:22:30;;;;;;;;;;;;;;;-142.21;100.00;66915.31;5019290;28;1662;-91
2021/12/14 09:24:56;;;;;;;;;;;;;;;-142.21;100.00;66915.31;5019280;28;1273;-91
2021/12/14 09:27:24;;;;;;;;;;;;;;;-142.21;100.00;66915.31;5037020;28;967;-91
2021/12/14 09:29:50;;;;;;;;;;;;;;;-142.21;100.00;66915.31;5036410;28;844;-90
2021/12/14 09:32:20;;;;;;;;;;;;;;;-142.21;100.00;66915.31;5036247;28;1286;-90
2021/12/14 09:34:45;;;;;;;;;;;;;;;-142.21;100.00;66915.31;5036043;28;1682;-90
2021/12/14 09:37:11;;;;;;;;;;;;;;;-142.21;100.00;66915.31;5036230;28;1965;-91
2021/12/14 09:39:38;;;;;;;;;;;;;;;-142.21;100.00;66915.31;5036048;28;1012;-91
2021/12/14 09:42:06;;;;;;;;;;;;;;;-142.21;100.00;66915.31;5036095;28;1201;-89
2021/12/14 09:44:33;;;;;;;;;;;;;;;-142.21;100.00;66915.31;5018392;28;1203;-90
2021/12/14 09:47:00;;;;;;;;;;;;;;;-142.21;100.00;66915.31;5018308;28;1304;-91
2021/12/14 09:49:26;;;;;;;;;;;;;;;-142.21;100.00;66915.31;5035587;28;1598;-91
2021/12/14 09:52:02;;;;;;;;;;;;;;;-142.21;100.00;66915.31;5018146;28;1235;-91
2021/12/14 09:54:28;;;;;;;;;;;;;;;-142.21;100.00;66915.31;5034555;28;1202;-90
2021/12/14 09:56:57;;;;;;;;;;;;;;;-142.21;100.00;66915.31;5018300;28;1263;-91
2021/12/14 09:59:23;;;;;;;;;;;;;;;-142.21;100.00;66915.31;5017364;28;1973;-90
2021/12/14 10:01:51;;;;;;;;;;;;;;;-142.21;100.00;66915.31;5034555;28;1333;-89
2021/12/14 10:04:20;;;;;;;;;;;;;;;-142.21;100.00;66915.31;5017975;28;1480;-90
2021/12/14 10:06:45;;;;;;;;;;;;;;;-142.21;100.00;66915.31;5034547;28;1197;-90
2021/12/14 10:09:12;;;;;;;;;;;;;;;-142.21;100.00;66915.31;5017334;28;1697;-91
2021/12/14 10:12:48;;;;;;;;;;;;;;;-142.21;100.00;66915.31;5017835;28;1306;-90
2021/12/14 10:14:30;;;;;;;;;;;;;;;-142.21;100.00;66915.31;5027561;28;1298;-91
2021/12/14 10:16:55;;;;;;;;;;;;;;;-142.21;100.00;66915.31;5035584;28;842;-90
2021/12/14 10:19:23;;;;;;;;;;;;;;;-142.21;100.00;66915.31;5018824;28;1898;-90
2021/12/14 10:21:53;;;;;;;;;;;;;;;-142.21;100.00;66915.31;5017600;28;1204;-88
2021/12/14 10:24:18;;;;;;;;;;;;;;;-142.21;100.00;66915.31;5034094;28;1709;-90
2021/12/14 10:26:46;;;;;;;;;;;;;;;-142.21;100.00;66915.31;5017550;28;1333;-90
2021/12/14 10:29:12;;;;;;;;;;;;;;;-142.21;100.00;66915.31;5017093;28;1646;-91
2021/12/14 10:31:40;;;;;;;;;;;;;;;-142.21;100.00;66915.31;5018822;28;1321;-91
2021/12/14 10:34:08;;;;;;;;;;;;;;;-142.21;100.00;66915.31;5017411;28;1402;-91
2021/12/14 10:36:39;;;;;;;;;;;;;;;-142.21;100.00;66915.31;5017945;28;1217;-90
2021/12/14 10:44:22;;;;;;;;;;;;;;;-142.21;100.00;66915.31;5035275;28;664;-89
2021/12/14 10:46:49;;;;;;;;;;;;;;;-142.21;100.00;66915.31;5017231;28;1246;-91
2021/12/14 10:49:17;;;;;;;;;;;;;;;-142.21;100.00;66915.31;5033807;28;1340;-91
2021/12/14 10:51:43;;;;;;;;;;;;;;;-142.21;100.00;66915.31;5035286;28;1299;-90
2021/12/14 10:54:12;;;;;;;;;;;;;;;-142.21;100.00;66915.31;5035170;28;1630;-89
2021/12/14 10:56:44;;;;;;;;;;;;;;;-142.21;100.00;66915.31;5017320;28;1566;-88
2021/12/14 10:59:12;;;;;;;;;;;;;;;-142.21;100.00;66915.31;5016885;28;1894;-91
2021/12/14 11:01:39;;;;;;;;;;;;;;;-142.21;100.00;66915.31;5034804;28;1192;-91
2021/12/14 11:04:08;;;;;;;;;;;;;;;-142.21;100.00;66915.31;5016978;28;1269;-90
2021/12/14 11:06:34;;;;;;;;;;;;;;;-142.21;100.00;66915.31;5034668;28;810;-89
2021/12/14 11:11:34;;;;;;;;;;;;;;;-142.21;100.00;66915.31;5035630;28;1269;-89
2021/12/14 11:14:04;;;;;;;;;;;;;;;-142.21;100.00;66915.31;5036400;28;795;-90
2021/12/14 11:18:08;;;;;;;;;;;;;;;-142.21;100.00;66915.31;5036374;28;1051;-90
2021/12/14 11:19:40;;;;;;;;;;;;;;;-142.21;100.00;66915.31;5034976;28;1947;-89
2021/12/14 11:22:10;;;;;;;;;;;;;;;-142.21;100.00;66915.31;5033805;28;1184;-91
2021/12/14 11:24:37;;;;;;;;;;;;;;;-142.21;100.00;66915.31;5034526;28;1131;-89
2021/12/14 11:27:11;;;;;;;;;;;;;;;-142.21;100.00;66915.31;5016457;28;1698;-89
2021/12/14 11:29:36;;;;;;;;;;;;;;;-142.21;100.00;66915.31;5034002;28;1574;-91
2021/12/14 11:32:03;;;;;;;;;;;;;;;-142.21;100.00;66915.31;5034796;28;1213;-89
2021/12/14 11:34:35;;;;;;;;;;;;;;;-142.21;100.00;66915.31;5034254;28;912;-89
2021/12/14 11:37:04;;;;;;;;;;;;;;;-142.21;100.00;66915.31;5016456;28;1400;-90
2021/12/14 11:39:34;;;;;;;;;;;;;;;-142.21;100.00;66915.31;5034402;28;1894;-89
2021/12/14 11:42:05;;;;;;;;;;;;;;;-142.21;100.00;66915.31;5033014;28;1575;-90
2021/12/14 11:44:33;;;;;;;;;;;;;;;-142.21;100.00;66915.31;5034055;28;1019;-89
2021/12/14 11:49:51;;;;;;;;;;;;;;;-142.21;100.00;66915.31;5034395;28;848;-89
2021/12/14 11:52:35;;;;;;;;;;;;;;;-142.21;100.00;66915.31;5016212;28;1182;-90
2021/12/14 11:55:13;;;;;;;;;;;;;;;-142.21;100.00;66915.31;5016050;28;1718;-89
2021/12/14 11:57:39;;;;;;;;;;;;;;;-142.21;100.00;66915.31;5033911;28;1898;-90
2021/12/14 12:00:08;;;;;;;;;;;;;;;-142.21;100.00;66915.31;5016046;28;1275;-89
2021/12/14 12:02:34;;;;;;;;;;;;;;;-142.21;100.00;66915.31;5016236;28;1192;-89
2021/12/14 12:05:11;;;;;;;;;;;;;;;-142.21;100.00;66915.31;5033531;28;1743;-89
2021/12/14 12:10:20;;;;;;;;;;;;;;;-142.21;100.00;66915.31;5033802;28;600;-90
2021/12/14 12:12:45;;;;;;;;;;;;;;;-142.21;100.00;66915.31;5033674;28;1271;-89
2021/12/14 12:15:19;;;;;;;;;;;;;;;-142.21;100.00;66915.31;5015951;28;1720;-89
2021/12/14 12:17:46;;;;;;;;;;;;;;;-142.21;100.00;66915.31;5037175;28;1898;-90
2021/12/14 12:20:14;;;;;;;;;;;;;;;-142.21;100.00;66915.31;5022692;28;1488;-89
2021/12/14 12:22:48;;;;;;;;;;;;;;;-142.21;100.00;66915.31;5022483;28;1461;-88
2021/12/14 12:25:21;;;;;;;;;;;;;;;-142.21;100.00;66915.31;5023127;28;1283;-89
2021/12/14 12:27:47;;;;;;;;;;;;;;;-142.21;100.00;66915.31;5023009;28;1406;-89
2021/12/14 12:32:57;;;;;;;;;;;;;;;-142.21;100.00;66915.31;5041143;28;1254;-88
2021/12/14 12:35:24;;;;;;;;;;;;;;;-142.21;100.00;66915.31;5022823;28;1221;-89
2021/12/14 12:37:50;;;;;;;;;;;;;;;-142.21;100.00;66915.31;5022457;28;1898;-90
2021/12/14 12:40:19;;;;;;;;;;;;;;;-142.21;100.00;66915.31;5022168;28;1307;-90
2021/12/14 12:42:44;;;;;;;;;;;;;;;-142.21;100.00;66915.31;5022488;28;1213;-90
2021/12/14 12:45:34;;;;;;;;;;;;;;;-142.21;100.00;66915.31;5039918;28;1468;-90
2021/12/14 12:48:02;;;;;;;;;;;;;;;-142.21;100.00;66915.31;5039909;28;1495;-89
2021/12/14 12:50:28;;;;;;;;;;;;;;;-142.21;100.00;66915.31;5039980;28;1499;-89
2021/12/14 12:52:53;;;;;;;;;;;;;;;-142.21;100.00;66915.31;5021962;28;1331;-90
2021/12/14 12:55:29;;;;;;;;;;;;;;;-142.21;100.00;66915.31;5022091;28;1452;-90
2021/12/14 12:58:12;;;;;;;;;;;;;;;-142.21;100.00;66915.31;5022354;28;1955;-90
2021/12/14 13:00:46;;;;;;;;;;;;;;;-142.21;100.00;66915.31;5029014;28;1443;-90
2021/12/14 13:03:17;;;;;;;;;;;;;;;-142.21;100.00;66915.31;5022187;28;1285;-91
2021/12/14 13:05:49;;;;;;;;;;;;;;;-142.21;100.00;66915.31;5042396;28;1671;-88
2021/12/14 13:08:17;;;;;;;;;;;;;;;-142.21;100.00;66915.31;5027413;28;1714;-90
2021/12/14 13:10:45;;;;;;;;;;;;;;;-142.21;100.00;66915.31;5040536;28;1279;-90
2021/12/14 13:13:12;;;;;;;;;;;;;;;-142.21;100.00;66915.31;5031387;28;1273;-89
2021/12/14 13:15:43;;;;;;;;;;;;;;;-142.21;100.00;66915.31;5042258;28;1690;-92
2021/12/14 13:18:15;;;;;;;;;;;;;;;-142.21;100.00;66915.31;5032428;28;1885;-88
2021/12/14 13:20:40;;;;;;;;;;;;;;;-142.21;100.00;66915.31;5039210;28;1176;-89